createdAt,value
2022-10-29T00:02:37.935Z,41.04
2022-10-29T00:05:32.680Z,41.05
2022-10-29T00:09:15.553Z,40.74
2022-10-29T00:16:10.111Z,40.50
2022-10-29T00:27:38.254Z,40.33
2022-10-29T00:35:04.146Z,40.10
2022-10-29T00:39:02.442Z,40.08
2022-10-29T00:50:31.204Z,40.55
2022-10-29T00:53:27.035Z,41.06
2022-10-29T00:56:34.897Z,40.06
2022-10-29T00:59:57.021Z,40.28
2022-10-29T01:03:14.649Z,40.04
2022-10-29T01:06:18.983Z,39.94
2022-10-29T01:09:17.957Z,39.91
2022-10-29T01:12:24.835Z,39.82
2022-10-29T01:15:44.969Z,39.66
2022-10-29T01:18:41.416Z,39.45
2022-10-29T01:21:52.480Z,39.50
2022-10-29T01:33:42.638Z,39.42
2022-10-29T01:50:50.269Z,38.73
2022-10-29T01:53:58.389Z,38.85
2022-10-29T01:57:01.930Z,38.79
2022-10-29T02:00:10.518Z,38.82
2022-10-29T02:03:26.692Z,38.87
2022-10-29T02:06:51.182Z,38.97
2022-10-29T02:10:17.172Z,38.64
2022-10-29T02:13:13.390Z,38.71
2022-10-29T02:15:58.720Z,38.60
2022-10-29T02:19:18.367Z,38.40
2022-10-29T02:23:05.067Z,38.41
2022-10-29T02:25:49.115Z,38.35
2022-10-29T02:28:47.679Z,38.16
2022-10-29T02:31:38.598Z,38.35
2022-10-29T02:34:10.620Z,38.58
2022-10-29T02:36:41.489Z,38.31
2022-10-29T02:39:26.346Z,38.31
2022-10-29T02:42:05.941Z,38.25
2022-10-29T02:44:51.629Z,38.29
2022-10-29T02:47:21.919Z,38.20
2022-10-29T02:50:07.166Z,38.03
2022-10-29T02:52:42.499Z,38.09
2022-10-29T02:55:17.732Z,38.02
2022-10-29T02:57:53.167Z,38.07
2022-10-29T03:00:22.955Z,37.98
2022-10-29T03:03:08.632Z,37.91
2022-10-29T03:05:48.075Z,38.03
2022-10-29T03:08:37.763Z,37.99
2022-10-29T03:11:11.161Z,38.02
2022-10-29T03:13:46.751Z,37.92
2022-10-29T03:16:17.466Z,37.95
2022-10-29T03:18:51.740Z,37.98
2022-10-29T03:22:19.497Z,38.11
2022-10-29T03:25:59.444Z,37.92
2022-10-29T03:29:30.326Z,37.86
2022-10-29T03:32:16.210Z,37.84
2022-10-29T03:34:49.903Z,37.82
2022-10-29T03:37:19.451Z,37.84
2022-10-29T03:40:10.560Z,37.78
2022-10-29T03:43:17.739Z,37.70
2022-10-29T03:47:05.161Z,37.74
2022-10-29T03:49:38.000Z,37.77
2022-10-29T03:52:10.562Z,37.78
2022-10-29T03:54:41.975Z,37.90
2022-10-29T03:57:10.746Z,37.78
2022-10-29T03:59:48.477Z,37.64
2022-10-29T04:02:22.735Z,37.60
2022-10-29T04:04:54.304Z,37.37
2022-10-29T04:07:29.696Z,37.46
2022-10-29T04:10:02.118Z,37.68
2022-10-29T04:12:35.172Z,37.61
2022-10-29T04:15:14.128Z,37.52
2022-10-29T04:17:44.815Z,37.31
2022-10-29T04:20:33.492Z,37.06
2022-10-29T04:24:32.523Z,36.97
2022-10-29T04:29:54.611Z,36.97
2022-10-29T04:32:30.561Z,37.10
2022-10-29T04:35:05.125Z,37.14
2022-10-29T04:37:35.062Z,37.42
2022-10-29T04:40:08.823Z,37.66
2022-10-29T04:42:41.726Z,37.70
2022-10-29T04:45:11.984Z,37.68
2022-10-29T04:47:45.824Z,37.62
2022-10-29T04:50:14.902Z,36.88
2022-10-29T04:52:45.641Z,36.82
2022-10-29T04:55:15.098Z,36.71
2022-10-29T04:57:53.480Z,37.19
2022-10-29T05:00:26.124Z,36.61
2022-10-29T05:03:02.869Z,36.60
2022-10-29T05:05:47.108Z,36.38
2022-10-29T05:08:32.570Z,36.33
2022-10-29T05:15:25.853Z,36.33
2022-10-29T05:18:00.908Z,36.71
2022-10-29T05:20:32.238Z,36.60
2022-10-29T05:23:17.188Z,36.54
2022-10-29T05:25:49.891Z,36.59
2022-10-29T05:28:26.756Z,36.61
2022-10-29T05:31:10.578Z,36.50
2022-10-29T05:33:41.499Z,36.41
2022-10-29T05:36:10.651Z,36.26
2022-10-29T05:38:41.585Z,36.17
2022-10-29T05:41:10.724Z,36.16
2022-10-29T05:43:42.732Z,36.16
2022-10-29T05:46:12.605Z,36.27
2022-10-29T05:48:42.120Z,36.46
2022-10-29T05:51:12.630Z,36.54
2022-10-29T05:53:41.760Z,36.35
2022-10-29T05:56:11.047Z,36.28
2022-10-29T05:58:42.419Z,36.20
2022-10-29T06:01:13.881Z,36.21
2022-10-29T06:03:42.839Z,36.16
2022-10-29T06:06:13.630Z,36.14
2022-10-29T06:08:43.986Z,36.23
2022-10-29T06:11:12.947Z,36.33
2022-10-29T06:13:44.671Z,36.59
2022-10-29T06:16:14.339Z,36.64
2022-10-29T06:18:43.956Z,36.50
2022-10-29T06:21:14.998Z,36.46
2022-10-29T06:23:46.292Z,36.40
2022-10-29T06:26:16.593Z,36.37
2022-10-29T06:28:47.985Z,36.35
2022-10-29T06:31:22.379Z,36.30
2022-10-29T06:33:55.247Z,36.31
2022-10-29T06:36:29.587Z,36.58
2022-10-29T06:39:02.535Z,36.58
2022-10-29T06:41:33.150Z,36.62
2022-10-29T06:44:02.875Z,36.56
2022-10-29T06:46:32.707Z,36.63
2022-10-29T06:49:04.664Z,36.81
2022-10-29T06:51:38.933Z,36.47
2022-10-29T06:54:18.940Z,36.52
2022-10-29T06:56:49.465Z,36.56
2022-10-29T06:59:19.143Z,36.48
2022-10-29T07:01:54.307Z,36.50
2022-10-29T07:04:37.149Z,36.38
2022-10-29T07:07:06.525Z,36.36
2022-10-29T07:09:37.850Z,36.22
2022-10-29T07:12:07.719Z,36.21
2022-10-29T07:14:42.653Z,35.93
2022-10-29T07:17:13.106Z,36.00
2022-10-29T07:19:42.621Z,35.98
2022-10-29T07:22:17.120Z,35.90
2022-10-29T07:24:53.052Z,36.01
2022-10-29T07:27:34.113Z,35.92
2022-10-29T07:30:06.439Z,35.81
2022-10-29T07:32:40.998Z,35.87
2022-10-29T07:35:10.554Z,35.79
2022-10-29T07:37:45.088Z,35.79
2022-10-29T07:40:14.742Z,35.65
2022-10-29T07:42:44.898Z,35.59
2022-10-29T07:45:14.898Z,35.59
2022-10-29T07:47:44.841Z,35.61
2022-10-29T07:50:13.567Z,35.54
2022-10-29T07:52:42.677Z,35.79
2022-10-29T07:55:14.322Z,35.67
2022-10-29T07:57:42.939Z,35.72
2022-10-29T08:00:14.161Z,35.85
2022-10-29T08:02:44.201Z,35.88
2022-10-29T08:05:14.514Z,35.88
2022-10-29T08:07:46.227Z,35.82
2022-10-29T08:10:14.497Z,36.32
2022-10-29T08:12:54.391Z,35.73
2022-10-29T08:15:33.309Z,35.86
2022-10-29T08:18:04.998Z,35.81
2022-10-29T08:20:34.523Z,35.91
2022-10-29T08:23:04.589Z,35.87
2022-10-29T08:25:34.202Z,35.90
2022-10-29T08:28:04.870Z,36.04
2022-10-29T08:30:35.286Z,35.95
2022-10-29T08:33:07.256Z,35.82
2022-10-29T08:35:45.937Z,35.82
2022-10-29T08:38:17.010Z,35.98
2022-10-29T08:40:51.058Z,35.86
2022-10-29T08:43:43.232Z,35.70
2022-10-29T08:46:30.062Z,35.52
2022-10-29T08:49:02.689Z,35.34
2022-10-29T08:51:35.055Z,35.35
2022-10-29T08:54:29.298Z,35.25
2022-10-29T08:56:54.967Z,35.38
2022-10-29T08:59:38.997Z,35.66
2022-10-29T09:02:20.964Z,35.52
2022-10-29T09:04:53.245Z,35.48
2022-10-29T09:07:37.753Z,36.00
2022-10-29T09:10:10.578Z,35.28
2022-10-29T09:12:55.251Z,35.13
2022-10-29T09:15:33.216Z,35.05
2022-10-29T09:18:23.351Z,35.03
2022-10-29T09:21:10.352Z,35.27
2022-10-29T09:23:39.240Z,35.20
2022-10-29T09:26:26.626Z,35.19
2022-10-29T09:29:06.413Z,35.18
2022-10-29T09:31:43.215Z,35.94
2022-10-29T09:34:34.993Z,36.03
2022-10-29T09:37:16.472Z,35.28
2022-10-29T09:39:49.201Z,36.45
2022-10-29T09:42:21.855Z,36.33
2022-10-29T09:44:58.054Z,36.47
2022-10-29T09:47:37.490Z,35.60
2022-10-29T09:50:30.800Z,35.14
2022-10-29T09:53:00.935Z,34.94
2022-10-29T09:55:45.222Z,35.20
2022-10-29T09:58:21.864Z,34.69
2022-10-29T10:00:51.600Z,34.66
2022-10-29T10:03:43.490Z,34.76
2022-10-29T10:06:16.881Z,34.82
2022-10-29T10:09:07.571Z,34.69
2022-10-29T10:11:42.826Z,35.74
2022-10-29T10:14:18.591Z,34.77
2022-10-29T10:16:48.367Z,34.74
2022-10-29T10:19:24.832Z,34.41
2022-10-29T10:22:01.810Z,34.50
2022-10-29T10:24:36.656Z,34.42
2022-10-29T10:27:20.765Z,34.31
2022-10-29T10:30:07.279Z,34.35
2022-10-29T10:32:38.948Z,34.22
2022-10-29T10:35:29.244Z,35.61
2022-10-29T10:38:00.924Z,34.33
2022-10-29T10:40:34.393Z,34.21
2022-10-29T10:43:06.921Z,34.24
2022-10-29T10:45:41.406Z,34.21
2022-10-29T10:48:11.038Z,34.23
2022-10-29T10:50:44.049Z,34.09
2022-10-29T10:53:23.788Z,34.08
2022-10-29T10:55:55.714Z,34.10
2022-10-29T10:58:37.398Z,34.06
2022-10-29T11:01:14.859Z,34.29
2022-10-29T11:03:47.109Z,34.27
2022-10-29T11:06:20.531Z,34.32
2022-10-29T11:09:08.933Z,34.39
2022-10-29T11:11:43.456Z,34.35
2022-10-29T11:14:23.093Z,34.34
2022-10-29T11:17:02.976Z,34.36
2022-10-29T11:19:46.669Z,34.41
2022-10-29T11:22:18.251Z,34.32
2022-10-29T11:24:51.597Z,34.33
2022-10-29T11:27:25.934Z,34.36
2022-10-29T11:30:06.832Z,34.58
2022-10-29T11:33:17.174Z,34.67
2022-10-29T11:36:03.583Z,34.70
2022-10-29T11:38:49.106Z,34.78
2022-10-29T11:41:30.281Z,35.02
2022-10-29T11:44:07.632Z,35.02
2022-10-29T11:46:59.297Z,35.08
2022-10-29T11:50:02.130Z,35.24
2022-10-29T11:52:36.079Z,35.39
2022-10-29T11:55:09.038Z,35.47
2022-10-29T11:57:41.547Z,35.60
2022-10-29T12:00:15.901Z,35.63
2022-10-29T12:02:50.920Z,35.68
2022-10-29T12:05:34.083Z,35.72
2022-10-29T12:08:12.141Z,35.75
2022-10-29T12:11:01.900Z,35.79
2022-10-29T12:13:57.680Z,36.08
2022-10-29T12:16:39.595Z,36.11
2022-10-29T12:19:30.849Z,36.26
2022-10-29T12:22:18.252Z,36.93
2022-10-29T12:24:50.575Z,36.70
2022-10-29T12:27:34.954Z,36.69
2022-10-29T12:30:08.106Z,36.89
2022-10-29T12:32:55.424Z,37.08
2022-10-29T12:35:30.949Z,37.13
2022-10-29T12:38:25.741Z,37.26
2022-10-29T12:41:04.326Z,37.43
2022-10-29T12:43:37.282Z,37.63
2022-10-29T12:46:21.379Z,38.16
2022-10-29T12:48:59.184Z,39.01
2022-10-29T12:51:33.587Z,39.60
2022-10-29T12:54:07.618Z,40.81
2022-10-29T12:56:38.213Z,40.00
2022-10-29T12:59:27.209Z,39.97
2022-10-29T13:02:42.475Z,39.91
2022-10-29T13:05:43.395Z,39.94
2022-10-29T13:08:38.728Z,41.00
2022-10-29T13:11:20.977Z,40.55
2022-10-29T13:13:58.447Z,41.14
2022-10-29T13:16:30.876Z,41.88
2022-10-29T13:19:40.457Z,42.44
2022-10-29T13:22:18.004Z,43.76
2022-10-29T13:25:09.362Z,44.84
2022-10-29T13:27:40.417Z,45.20
2022-10-29T13:30:25.528Z,46.44
2022-10-29T13:33:11.060Z,45.94
2022-10-29T13:36:09.881Z,46.29
2022-10-29T13:39:05.505Z,46.04
2022-10-29T13:41:43.899Z,45.59
2022-10-29T13:44:19.556Z,45.10
2022-10-29T13:47:02.730Z,44.41
2022-10-29T13:50:15.387Z,43.98
2022-10-29T13:52:56.605Z,43.46
2022-10-29T13:55:37.552Z,43.18
2022-10-29T13:58:27.642Z,43.13
2022-10-29T14:01:07.440Z,43.06
2022-10-29T14:03:46.045Z,43.02
2022-10-29T14:06:40.723Z,42.76
2022-10-29T14:09:58.343Z,42.76
2022-10-29T14:17:53.845Z,42.82
2022-10-29T14:21:14.603Z,42.85
2022-10-29T14:24:19.739Z,42.59
2022-10-29T14:31:17.246Z,42.52
2022-10-29T14:33:51.712Z,42.35
2022-10-29T14:36:26.261Z,42.51
2022-10-29T14:39:14.170Z,42.50
2022-10-29T14:42:07.399Z,42.36
2022-10-29T14:44:42.626Z,42.39
2022-10-29T14:47:47.163Z,43.09
2022-10-29T14:50:21.305Z,42.75
2022-10-29T14:53:32.912Z,42.49
2022-10-29T14:59:33.454Z,42.40
2022-10-29T15:02:39.243Z,42.70
2022-10-29T15:05:41.761Z,43.15
2022-10-29T15:08:34.076Z,43.13
2022-10-29T15:11:06.906Z,43.12
2022-10-29T15:13:41.679Z,43.37
2022-10-29T15:16:42.444Z,44.04
2022-10-29T15:20:13.933Z,45.12
2022-10-29T15:23:12.738Z,45.69
2022-10-29T15:26:54.739Z,45.40
2022-10-29T15:29:42.871Z,45.05
2022-10-29T15:32:49.711Z,44.89
2022-10-29T15:35:47.075Z,44.53
2022-10-29T15:38:41.728Z,44.54
2022-10-29T15:42:00.728Z,44.29
2022-10-29T15:45:39.361Z,44.37
2022-10-29T15:48:48.584Z,44.40
2022-10-29T15:51:50.253Z,44.54
2022-10-29T15:54:46.198Z,44.52
2022-10-29T15:57:40.067Z,43.98
2022-10-29T16:00:42.510Z,43.77
2022-10-29T16:03:49.808Z,43.80
2022-10-29T16:10:55.829Z,43.74
2022-10-29T16:14:19.541Z,43.72
2022-10-29T16:17:43.799Z,43.93
2022-10-29T16:20:43.113Z,43.72
2022-10-29T16:26:57.590Z,43.54
2022-10-29T16:30:25.941Z,43.43
2022-10-29T16:37:02.694Z,43.30
2022-10-29T16:40:59.306Z,43.32
2022-10-29T16:44:16.621Z,43.30
2022-10-29T17:00:29.915Z,43.71
2022-10-29T17:04:17.172Z,43.38
2022-10-29T17:07:17.880Z,43.20
2022-10-29T17:10:15.283Z,43.26
2022-10-29T17:13:16.513Z,43.29
2022-10-29T17:20:04.632Z,43.12
2022-10-29T17:22:55.016Z,43.36
2022-10-29T17:25:46.920Z,43.44
2022-10-29T17:33:12.415Z,43.35
2022-10-29T17:36:09.451Z,43.36
2022-10-29T17:43:18.414Z,43.79
2022-10-29T17:46:39.989Z,43.50
2022-10-29T17:49:46.818Z,43.72
2022-10-29T17:52:43.402Z,43.90
2022-10-29T17:55:35.414Z,43.87
2022-10-29T17:58:32.723Z,44.24
2022-10-29T18:01:15.914Z,43.56
2022-10-29T18:04:01.390Z,43.61
2022-10-29T18:06:31.238Z,43.66
2022-10-29T18:09:09.305Z,43.79
2022-10-29T18:11:43.502Z,43.75
2022-10-29T18:14:14.610Z,44.27
2022-10-29T18:16:46.913Z,44.48
2022-10-29T18:19:17.130Z,44.60
2022-10-29T18:21:48.520Z,44.61
2022-10-29T18:24:39.358Z,44.70
2022-10-29T18:27:22.408Z,44.94
2022-10-29T18:30:19.417Z,44.74
2022-10-29T18:33:05.680Z,44.68
2022-10-29T18:35:39.884Z,44.60
2022-10-29T18:38:11.747Z,44.69
2022-10-29T18:40:42.834Z,44.79
2022-10-29T18:43:14.627Z,44.82
2022-10-29T18:45:46.418Z,44.66
2022-10-29T18:48:17.333Z,44.55
2022-10-29T18:50:49.677Z,44.57
2022-10-29T18:53:19.851Z,44.65
2022-10-29T18:55:54.077Z,44.69
2022-10-29T18:58:24.727Z,44.73
2022-10-29T19:01:04.050Z,44.80
2022-10-29T19:03:35.646Z,44.72
2022-10-29T19:06:07.814Z,44.75
2022-10-29T19:08:39.226Z,44.66
2022-10-29T19:11:15.288Z,44.65
2022-10-29T19:13:47.162Z,44.72
2022-10-29T19:16:17.672Z,44.86
2022-10-29T19:18:47.615Z,44.83
2022-10-29T19:21:19.336Z,44.83
2022-10-29T19:23:49.889Z,45.83
2022-10-29T19:26:19.202Z,45.49
2022-10-29T19:28:48.819Z,44.89
2022-10-29T19:31:19.480Z,44.61
2022-10-29T19:33:53.504Z,44.64
2022-10-29T19:36:25.777Z,44.41
2022-10-29T19:38:59.249Z,44.85
2022-10-29T19:41:31.893Z,44.96
2022-10-29T19:52:02.582Z,45.00
2022-10-29T19:54:51.090Z,45.14
2022-10-29T19:57:29.627Z,45.34
2022-10-29T20:00:16.523Z,45.25
2022-10-29T20:02:55.956Z,46.61
2022-10-29T20:05:38.020Z,45.61
2022-10-29T20:08:16.315Z,45.48
2022-10-29T20:10:47.921Z,45.23
2022-10-29T20:13:40.070Z,45.15
2022-10-29T20:16:25.402Z,44.96
2022-10-29T20:19:15.229Z,44.73
2022-10-29T20:22:03.462Z,44.60
2022-10-29T20:24:45.882Z,44.91
2022-10-29T20:27:22.897Z,44.62
2022-10-29T20:39:07.170Z,44.82
2022-10-29T20:47:54.939Z,44.82
2022-10-29T21:21:07.602Z,45.15
2022-10-29T21:23:47.053Z,44.85
2022-10-29T21:26:50.420Z,45.13
2022-10-29T21:29:22.542Z,45.22
2022-10-29T21:31:54.911Z,45.37
2022-10-29T21:34:35.570Z,45.18
2022-10-29T21:38:23.865Z,45.13
2022-10-29T21:42:03.659Z,44.71
2022-10-29T21:45:06.762Z,44.58
2022-10-29T21:48:17.021Z,44.52
2022-10-29T21:51:19.264Z,44.52
2022-10-29T21:54:06.149Z,44.69
2022-10-29T21:56:39.300Z,45.23
2022-10-29T21:59:25.559Z,44.91
2022-10-29T22:02:05.390Z,44.74
2022-10-29T22:04:34.827Z,44.64
2022-10-29T22:07:10.383Z,44.67
2022-10-29T22:09:40.214Z,44.69
2022-10-29T22:12:17.297Z,44.62
2022-10-29T22:15:11.998Z,44.54
2022-10-29T22:17:55.419Z,44.53
2022-10-29T22:21:34.201Z,44.35
2022-10-29T22:24:43.959Z,44.22
2022-10-29T22:27:37.865Z,44.08
2022-10-29T22:30:09.474Z,43.91
2022-10-29T22:33:04.196Z,43.66
2022-10-29T22:41:43.446Z,43.63
2022-10-29T22:44:27.668Z,43.45
2022-10-29T22:47:10.871Z,43.27
2022-10-29T22:50:18.593Z,43.09
2022-10-29T22:53:52.576Z,42.86
2022-10-29T22:57:10.119Z,42.76
2022-10-29T22:59:48.153Z,42.57
2022-10-29T23:07:00.749Z,42.17
2022-10-29T23:10:23.443Z,41.94
2022-10-29T23:13:10.902Z,41.89
2022-10-29T23:15:57.398Z,41.69
2022-10-29T23:19:04.054Z,41.49
2022-10-29T23:22:00.948Z,41.18
2022-10-29T23:25:12.999Z,41.06
2022-10-29T23:32:11.726Z,40.72
2022-10-29T23:34:55.479Z,40.55
2022-10-29T23:38:02.452Z,40.40
2022-10-29T23:40:54.595Z,40.33
2022-10-29T23:43:28.102Z,40.37
2022-10-29T23:46:19.655Z,40.36
2022-10-29T23:49:11.480Z,40.32
2022-10-29T23:51:47.083Z,40.34
2022-10-29T23:54:25.922Z,40.18
